Table of current weather in Finland weather stations (FMI)

Data updated at Finland time 23.04.2019 01:45   Click the links in "Station" for forecasts

Station
 
Station name
 
 Loc 
 
Observed
 
Temp.
°C
Wind
m/s
From
 
Windchill
°C
Gusts
m/s
Humidity
%
Air pressure
hPa
Clouds
 
Conditions
 
Precip.
mm/1h
Snow
cm
100968 Helsinki-Vantaa Map 23.04 01:30 7.8 2.8 SW 6.0 3.0 68.0 1028.2 clear sky (0/8) 0.0
100971 Helsinki/Kaisaniemi Map 23.04 01:30 9.9 2.1 SW 9.0 3.5 60.0 1028.2 clear sky (0/8) 0.0
874863 Espoo/Tapiola Map 23.04 01:30 5.1 3.1 SW 2.5 4.0 80.0 1028.2 clear sky (0/8) 0.0
852678 Espoo/Nuuksio Map 23.04 01:30 5.0 2.3 SW 3.1 4.0 79.0 1028.3 clear sky (0/8) 0.0
151029 Mariehamn Map 23.04 01:30 5.6 4.7 S 2.2 6.7 87.0 1026.8
100908 Utö Map 23.04 01:30 5.9 7.2 S 1.6 7.9 86.0 1027.5 clear sky (0/8)
100949 Turku/Artukainen Map 23.04 01:30 6.3 2.5 S 4.4 3.9 79.0 1027.5 clear sky (0/8) 0.0
101247 Lappeenranta/Lepola Map 23.04 01:30 10.7 3.6 W 9.0 7.7 53.0 1026.6 partly cloudy (4/8) 0.0
101254 Parikkala Map 23.04 01:30 1.7 0.9 SW 1.3 2.2 100.0 1026.4 0.0
101124 Tampere/Härmälä Map 23.04 01:30 7.8 70.0 1026.4 clear sky (0/8) 0.0
101339 Jyväskylä/Airport Map 23.04 01:30 8.7 2.2 SW 7.5 4.5 64.0 1025.2 mostly clear (1/8)
101632 Joensuu/Linnunlahti Map 23.04 01:30 3.5 83.0 1025.1 overcast (8/8) 27.0
101586 Kuopio/Savilahti Map 23.04 01:30 10.1 2.2 SW 9.1 3.7 53.0 1023.6 cloudy (7/8)
101485 Vaasa/Kemettilä Map 23.04 01:30 7.5 5.2 S 4.4 7.2 71.0 1022.3 clear sky (0/8) 0.0
126736 Kajaani/Petäisenniska Map 23.04 01:30 8.5 2.9 SW 6.8 4.9 68.0 1021.7 clear sky (0/8) 11.0
101773 Kuhmo/Kalliojoki Map 23.04 01:30 7.0 2.7 SW 5.1 4.5 64.0 1021.8 overcast (8/8) 10.0
101799 Oulu/Oulunsalo Map 23.04 01:30 5.7 2.8 SW 3.5 5.9 78.0 1020.0 cloudy (7/8) 8.0
101899 Kuusamo/Kiutaköngäs Map 23.04 01:30 4.1 5.3 SW 0.0 9.3 87.0
101920 Rovaniemi/Airport Map 23.04 01:30 2.7 94.0 26.0
101966 Salla/Naruska Map 23.04 01:30 3.3 2.3 SW 1.1 4.6 89.0 1015.3 57.0
101994 Kittilä/Pokka Map 23.04 01:30 3.8 5.4 SW -0.4 10.7 82.0 overcast (8/8) 68.0
102019 Enontekiö/Näkkälä Map 23.04 01:30 4.2 4.8 SW 0.4 7.3 82.0 1010.2 overcast (8/8) 48.0
102052 Ivalo Map 23.04 01:30 5.2 3.0 S 2.7 6.0 73.0 1009.8 cloudy (7/8) Rain, slight 30.0
102016 Enontekiö/Kilpisjärvi Map 23.04 01:30 3.1 1.4 SE 1.9 3.0 95.0 1008.8 overcast (8/8) Rain, slight 56.0
102035 Utsjoki/Kevo Map 23.04 01:30 2.8 4.7 S -1.3 6.5 90.0 1008.5 overcast (8/8) Drizzle, slight 30.0